Time;durP1;ratioP1;P1;durP2;ratioP2;P2;SDS_P1;SDS_P2;PMS_P1;PMS_P2;Temp;Humidity;BMP_temperature;BMP_pressure;BME280_temperature;BME280_humidity;BME280_pressure;Samples;Min_cycle;Max_cycle;Signal;HPM_P1;HPM_P2
2021/08/13 00:00:54;;;;;;;9.50;8.50;;;19.20;99.90;;;;;;6290608;22;20408;-80
2021/08/13 00:03:20;;;;;;;10.33;7.77;;;19.20;99.90;;;;;;6288929;22;20429;-81
2021/08/13 00:05:47;;;;;;;9.83;8.73;;;19.20;99.90;;;;;;6287114;22;20405;-80
2021/08/13 00:08:14;;;;;;;9.60;8.70;;;19.20;99.90;;;;;;6290417;22;20401;-81
2021/08/13 00:10:42;;;;;;;9.10;8.20;;;19.10;99.90;;;;;;6292981;22;20444;-81
2021/08/13 00:13:08;;;;;;;9.60;8.60;;;19.10;99.90;;;;;;6291384;22;20758;-81
2021/08/13 00:15:35;;;;;;;14.60;10.07;;;19.10;99.90;;;;;;6290436;22;20577;-81
2021/08/13 00:18:02;;;;;;;8.70;7.80;;;19.10;99.90;;;;;;6291214;22;20455;-82
2021/08/13 00:20:28;;;;;;;14.43;12.03;;;19.10;99.90;;;;;;6288365;22;20401;-81
2021/08/13 00:22:55;;;;;;;11.93;10.77;;;19.10;99.90;;;;;;6288059;22;20451;-81
2021/08/13 00:25:22;;;;;;;12.43;10.10;;;19.10;99.90;;;;;;6287515;22;20405;-81
2021/08/13 00:27:50;;;;;;;10.50;9.30;;;19.10;99.90;;;;;;6287517;22;20405;-81
2021/08/13 00:30:16;;;;;;;10.63;9.47;;;19.10;99.90;;;;;;6286646;22;20433;-80
2021/08/13 00:32:43;;;;;;;14.40;10.17;;;19.00;99.90;;;;;;6287084;22;20428;-80
2021/08/13 00:35:10;;;;;;;11.30;9.23;;;19.00;99.90;;;;;;6286857;22;20735;-80
2021/08/13 00:37:37;;;;;;;10.43;9.23;;;19.00;99.90;;;;;;6286926;22;20401;-80
2021/08/13 00:40:05;;;;;;;12.07;10.30;;;19.00;99.90;;;;;;6286649;22;20492;-81
2021/08/13 00:42:31;;;;;;;10.30;9.20;;;19.00;99.90;;;;;;6287047;22;20429;-81
2021/08/13 00:44:59;;;;;;;11.87;9.83;;;19.00;99.90;;;;;;6286791;22;20412;-81
2021/08/13 00:47:26;;;;;;;12.90;9.90;;;18.90;99.90;;;;;;6289849;22;20447;-81
2021/08/13 00:49:54;;;;;;;10.70;9.60;;;18.90;99.90;;;;;;6289905;22;20404;-80
2021/08/13 00:52:21;;;;;;;11.13;10.00;;;18.90;99.90;;;;;;6288215;22;20425;-81
2021/08/13 00:54:48;;;;;;;11.63;10.53;;;18.90;99.90;;;;;;6290798;22;20401;-80
2021/08/13 00:57:14;;;;;;;11.90;9.50;;;18.90;99.90;;;;;;6290953;22;20405;-80
2021/08/13 00:59:41;;;;;;;13.13;9.60;;;18.90;99.90;;;;;;6289007;22;20405;-81
2021/08/13 01:02:09;;;;;;;10.27;9.13;;;18.90;99.90;;;;;;6288775;22;20508;-80
2021/08/13 01:04:36;;;;;;;11.10;10.00;;;18.90;99.90;;;;;;6287089;22;20401;-80
2021/08/13 01:07:04;;;;;;;11.37;10.17;;;18.90;99.90;;;;;;6287720;22;20402;-80
2021/08/13 01:09:31;;;;;;;11.33;9.43;;;19.00;99.90;;;;;;6287672;22;20478;-80
2021/08/13 01:12:01;;;;;;;15.03;10.07;;;19.00;99.90;;;;;;6288519;22;20456;-81
2021/08/13 01:14:37;;;;;;;15.50;11.07;;;19.00;99.90;;;;;;6287573;22;20375;-79
2021/08/13 01:17:07;;;;;;;16.10;10.50;;;19.00;99.90;;;;;;6287553;22;20729;-79
2021/08/13 01:19:45;;;;;;;11.63;9.50;;;18.90;99.90;;;;;;6286438;22;20408;-81
2021/08/13 01:22:14;;;;;;;10.10;9.10;;;18.90;99.90;;;;;;6286243;22;20451;-79
2021/08/13 01:24:44;;;;;;;9.60;8.87;;;18.80;99.90;;;;;;6286317;22;20408;-79
2021/08/13 01:27:13;;;;;;;10.93;9.93;;;18.80;99.90;;;;;;6286832;22;20409;-80
2021/08/13 01:29:45;;;;;;;11.20;10.10;;;18.80;99.90;;;;;;6287109;22;20410;-81
2021/08/13 01:32:33;;;;;;;15.07;8.77;;;18.90;99.90;;;;;;6287579;22;20445;-82
2021/08/13 01:35:04;;;;;;;10.20;9.20;;;18.90;99.90;;;;;;6287283;22;20409;-81
2021/08/13 01:37:32;;;;;;;10.90;9.90;;;18.90;99.90;;;;;;6285230;22;20378;-81
2021/08/13 01:40:00;;;;;;;10.03;9.10;;;18.90;99.90;;;;;;6286058;22;20408;-82
2021/08/13 01:42:29;;;;;;;10.90;9.80;;;18.90;99.90;;;;;;6285032;22;20437;-81
2021/08/13 01:44:57;;;;;;;9.77;8.87;;;18.80;99.90;;;;;;6284993;22;20405;-81
2021/08/13 01:47:26;;;;;;;11.43;9.33;;;18.80;99.90;;;;;;6285413;22;20459;-82
2021/08/13 01:49:54;;;;;;;9.87;9.00;;;18.80;99.90;;;;;;6286470;22;20832;-80
2021/08/13 01:52:23;;;;;;;10.60;9.60;;;18.80;99.90;;;;;;6286835;22;20449;-80
2021/08/13 01:54:49;;;;;;;14.50;9.67;;;18.70;99.90;;;;;;6286460;22;20901;-80
2021/08/13 01:57:17;;;;;;;10.70;9.60;;;18.70;99.90;;;;;;6286168;22;20948;-80
2021/08/13 01:59:44;;;;;;;10.57;8.93;;;18.70;99.90;;;;;;6285337;22;20405;-82
2021/08/13 02:02:11;;;;;;;11.17;10.00;;;18.70;99.90;;;;;;6285246;22;20420;-80
2021/08/13 02:04:41;;;;;;;17.03;9.43;;;18.70;99.90;;;;;;6285179;22;20686;-82
2021/08/13 02:07:09;;;;;;;10.90;9.80;;;18.60;99.90;;;;;;6286064;22;20402;-80
2021/08/13 02:09:36;;;;;;;10.37;9.27;;;18.60;99.90;;;;;;6289976;22;20405;-78
2021/08/13 02:12:03;;;;;;;10.00;9.07;;;18.60;99.90;;;;;;6290602;22;20747;-79
2021/08/13 02:14:30;;;;;;;10.60;9.33;;;18.60;99.90;;;;;;6289827;22;20409;-79
2021/08/13 02:17:00;;;;;;;9.20;8.40;;;18.60;99.90;;;;;;6290052;22;20405;-78
2021/08/13 02:19:33;;;;;;;10.70;9.63;;;18.60;99.90;;;;;;6291370;22;20484;-79
2021/08/13 02:22:02;;;;;;;9.10;8.30;;;18.60;99.90;;;;;;6289933;22;20484;-79
2021/08/13 02:24:28;;;;;;;11.47;9.83;;;18.60;99.90;;;;;;6289860;22;20412;-79
2021/08/13 02:26:55;;;;;;;10.53;9.50;;;18.60;99.90;;;;;;6290255;22;20405;-79
2021/08/13 02:29:22;;;;;;;9.50;8.60;;;18.60;99.90;;;;;;6289483;22;20470;-78
2021/08/13 02:31:49;;;;;;;10.27;9.30;;;18.60;99.90;;;;;;6293258;22;20475;-79
2021/08/13 02:34:15;;;;;;;14.57;9.23;;;18.60;99.90;;;;;;6290520;22;20397;-79
2021/08/13 02:36:47;;;;;;;10.27;9.37;;;18.60;99.90;;;;;;6290977;22;20687;-79
2021/08/13 02:39:21;;;;;;;10.07;9.23;;;18.60;99.90;;;;;;6291194;22;20390;-78
2021/08/13 02:41:48;;;;;;;10.00;9.00;;;;;;;;;;6285013;22;20761;-78
2021/08/13 02:44:20;;;;;;;10.03;9.03;;;18.60;99.90;;;;;;6283878;22;20386;-81
2021/08/13 02:46:53;;;;;;;10.83;9.27;;;18.70;99.90;;;;;;6284230;22;20455;-80
2021/08/13 02:49:21;;;;;;;9.90;9.00;;;18.70;99.90;;;;;;6284195;22;20957;-81
2021/08/13 02:51:52;;;;;;;9.90;9.03;;;18.70;99.90;;;;;;6283414;22;20471;-81
2021/08/13 02:54:26;;;;;;;10.20;9.30;;;18.60;99.90;;;;;;6300700;22;20385;-79
2021/08/13 02:56:55;;;;;;;10.73;9.70;;;18.80;99.90;;;;;;6301255;22;20386;-81
2021/08/13 02:59:23;;;;;;;11.03;9.97;;;18.60;99.90;;;;;;6288000;22;20420;-81
2021/08/13 03:01:51;;;;;;;10.10;9.10;;;18.70;99.90;;;;;;6288226;22;20460;-80
2021/08/13 03:04:19;;;;;;;10.47;9.47;;;18.50;99.90;;;;;;6287832;22;20401;-81
2021/08/13 03:06:46;;;;;;;10.27;9.37;;;18.50;99.90;;;;;;6287912;22;20400;-80
2021/08/13 03:09:14;;;;;;;11.23;10.13;;;18.60;99.90;;;;;;6290001;22;20466;-80
2021/08/13 03:11:44;;;;;;;10.20;9.20;;;18.60;99.90;;;;;;6301495;22;20440;-80
2021/08/13 03:14:11;;;;;;;10.77;9.77;;;18.70;99.90;;;;;;6283483;22;20471;-79
2021/08/13 03:16:38;;;;;;;11.27;9.10;;;18.60;99.90;;;;;;6282397;22;20401;-79
2021/08/13 03:19:06;;;;;;;10.93;9.87;;;18.50;99.90;;;;;;6281888;22;20409;-80
2021/08/13 03:21:33;;;;;;;11.67;9.60;;;18.50;99.90;;;;;;6280953;22;20401;-80
2021/08/13 03:24:01;;;;;;;10.97;10.00;;;18.50;99.90;;;;;;6280606;22;20444;-80
2021/08/13 03:26:28;;;;;;;10.70;9.80;;;18.50;99.90;;;;;;6281124;22;20402;-80
2021/08/13 03:28:56;;;;;;;12.00;10.90;;;18.50;99.90;;;;;;6282104;22;20397;-78
2021/08/13 03:31:32;;;;;;;9.90;9.10;;;18.80;99.90;;;;;;6281044;22;20437;-80
2021/08/13 03:33:59;;;;;;;10.73;9.73;;;18.50;99.90;;;;;;6281848;22;20417;-79
2021/08/13 03:36:26;;;;;;;11.40;10.40;;;18.50;99.90;;;;;;6290723;22;20427;-79
2021/08/13 03:38:53;;;;;;;11.07;10.07;;;18.50;99.90;;;;;;6289135;22;20459;-80
2021/08/13 03:41:19;;;;;;;15.60;14.00;;;18.50;99.90;;;;;;6288094;22;20913;-79
2021/08/13 03:43:46;;;;;;;12.00;10.80;;;18.40;99.90;;;;;;6284895;22;20441;-80
2021/08/13 03:46:14;;;;;;;12.23;9.70;;;18.30;99.90;;;;;;6282717;22;20404;-80
2021/08/13 03:48:41;;;;;;;10.93;10.00;;;18.30;99.90;;;;;;6282556;22;20455;-80
2021/08/13 03:51:08;;;;;;;11.17;10.07;;;18.30;99.90;;;;;;6282159;22;20988;-80
2021/08/13 03:53:34;;;;;;;12.67;10.07;;;18.30;99.90;;;;;;6283122;22;20417;-80
2021/08/13 03:56:01;;;;;;;9.67;8.87;;;18.20;99.90;;;;;;6283097;22;20401;-81
2021/08/13 03:58:27;;;;;;;10.97;9.87;;;18.40;99.90;;;;;;6282962;22;20436;-81
2021/08/13 04:00:54;;;;;;;10.43;9.53;;;18.30;99.90;;;;;;6283034;22;20424;-80
2021/08/13 04:03:22;;;;;;;11.13;9.90;;;18.30;99.90;;;;;;6283468;22;20425;-81
2021/08/13 04:05:48;;;;;;;10.80;9.70;;;18.40;99.90;;;;;;6283176;22;20413;-81
2021/08/13 04:08:15;;;;;;;10.97;9.97;;;18.50;99.90;;;;;;6283077;22;20401;-80
2021/08/13 04:10:41;;;;;;;13.17;10.93;;;18.50;99.90;;;;;;6285212;22;20966;-81
2021/08/13 04:13:08;;;;;;;11.63;10.33;;;18.50;99.90;;;;;;6284913;22;20490;-80
2021/08/13 04:15:35;;;;;;;10.60;9.60;;;18.50;99.90;;;;;;6284585;22;20409;-81
2021/08/13 04:18:01;;;;;;;10.33;9.33;;;18.50;99.90;;;;;;6285542;22;20427;-81
2021/08/13 04:20:29;;;;;;;13.10;10.37;;;18.50;99.90;;;;;;6294770;22;20422;-80
2021/08/13 04:22:56;;;;;;;9.90;9.10;;;18.50;99.90;;;;;;6283830;22;20429;-80
2021/08/13 04:25:22;;;;;;;15.93;10.67;;;18.50;99.90;;;;;;6283560;22;20462;-80
2021/08/13 04:27:49;;;;;;;10.77;9.67;;;18.60;99.90;;;;;;6280462;22;20405;-80
2021/08/13 04:30:16;;;;;;;10.00;8.40;;;18.60;99.90;;;;;;6281330;22;20455;-81
2021/08/13 04:32:42;;;;;;;11.27;10.20;;;18.70;99.90;;;;;;6284221;22;20445;-81
2021/08/13 04:35:11;;;;;;;11.77;10.50;;;18.80;99.90;;;;;;6287358;22;20412;-81
2021/08/13 04:37:39;;;;;;;11.07;10.07;;;18.70;99.90;;;;;;6287958;22;20740;-81
2021/08/13 04:40:07;;;;;;;11.30;9.93;;;18.70;99.90;;;;;;6289581;22;20435;-80
2021/08/13 04:42:33;;;;;;;13.57;11.90;;;18.80;99.90;;;;;;6293686;22;20429;-81
2021/08/13 04:45:00;;;;;;;11.07;9.97;;;18.80;99.90;;;;;;6287942;22;20740;-80
2021/08/13 04:47:26;;;;;;;14.53;10.67;;;18.80;99.90;;;;;;6287558;22;20409;-80
2021/08/13 04:49:53;;;;;;;12.00;10.90;;;19.00;99.90;;;;;;6287087;22;20455;-80
2021/08/13 04:52:20;;;;;;;11.80;10.70;;;18.80;99.90;;;;;;6286448;22;20444;-80
2021/08/13 04:54:48;;;;;;;11.30;10.13;;;18.80;99.90;;;;;;6287232;22;20408;-80
2021/08/13 04:57:15;;;;;;;12.63;10.27;;;18.80;99.90;;;;;;6288811;22;20412;-80
2021/08/13 04:59:42;;;;;;;11.37;10.23;;;18.80;99.90;;;;;;6290757;22;20409;-81
2021/08/13 05:02:09;;;;;;;10.93;9.87;;;18.80;99.90;;;;;;6290214;22;20498;-81
2021/08/13 05:04:35;;;;;;;11.50;10.53;;;18.80;99.90;;;;;;6290212;22;20401;-81
2021/08/13 05:07:02;;;;;;;12.10;10.53;;;18.80;99.90;;;;;;6291251;22;20413;-81
2021/08/13 05:09:28;;;;;;;15.97;10.60;;;18.70;99.90;;;;;;6289736;22;20451;-82
2021/08/13 05:11:56;;;;;;;14.00;10.70;;;19.10;99.90;;;;;;6292654;22;20506;-83
2021/08/13 05:14:23;;;;;;;14.80;11.50;;;18.80;99.90;;;;;;6291740;22;20402;-80
2021/08/13 05:16:49;;;;;;;15.13;10.70;;;18.80;99.90;;;;;;6292240;22;20411;-81
2021/08/13 05:19:16;;;;;;;10.07;9.27;;;18.90;99.90;;;;;;6292289;22;20406;-80
2021/08/13 05:21:42;;;;;;;12.83;11.50;;;18.80;99.90;;;;;;6290599;22;20397;-81
2021/08/13 05:24:09;;;;;;;12.47;11.27;;;18.80;99.90;;;;;;6290865;22;20405;-81
2021/08/13 05:26:36;;;;;;;12.57;11.30;;;18.90;99.90;;;;;;6289538;22;20401;-80
2021/08/13 05:29:04;;;;;;;11.53;10.43;;;18.90;99.90;;;;;;6288770;22;20467;-81
2021/08/13 05:31:31;;;;;;;13.40;12.10;;;18.90;99.90;;;;;;6286896;22;20467;-80
2021/08/13 05:33:57;;;;;;;13.73;11.97;;;18.80;99.90;;;;;;6287127;22;20428;-81
2021/08/13 05:36:24;;;;;;;12.20;11.00;;;18.90;99.90;;;;;;6287802;22;20466;-82
2021/08/13 05:38:50;;;;;;;12.57;11.47;;;18.90;99.90;;;;;;6286665;22;20455;-79
2021/08/13 05:41:17;;;;;;;13.23;11.67;;;18.90;99.90;;;;;;6286557;22;20431;-82
2021/08/13 05:43:44;;;;;;;12.00;10.80;;;18.80;99.90;;;;;;6286022;22;20925;-81
2021/08/13 05:46:12;;;;;;;21.27;15.83;;;19.00;99.90;;;;;;6285537;22;20444;-81
2021/08/13 05:48:38;;;;;;;14.00;11.90;;;18.80;99.90;;;;;;6285626;22;20409;-81
2021/08/13 05:51:05;;;;;;;13.13;11.83;;;18.70;99.90;;;;;;6287871;22;20428;-80
2021/08/13 05:53:31;;;;;;;13.60;12.40;;;18.70;99.90;;;;;;6285507;22;20444;-79
2021/08/13 05:55:58;;;;;;;19.73;12.97;;;18.70;99.90;;;;;;6285527;22;20401;-79
2021/08/13 05:58:25;;;;;;;15.20;10.60;;;18.70;99.90;;;;;;6284697;22;20409;-79
2021/08/13 06:00:51;;;;;;;15.70;12.43;;;18.70;99.90;;;;;;6285983;22;20397;-79
2021/08/13 06:03:19;;;;;;;12.93;11.70;;;18.70;99.90;;;;;;6294442;22;20421;-79
2021/08/13 06:05:46;;;;;;;12.87;10.97;;;18.70;99.90;;;;;;6301597;22;20392;-79
2021/08/13 06:08:12;;;;;;;13.20;11.20;;;18.70;99.90;;;;;;6295861;22;20416;-79
2021/08/13 06:10:39;;;;;;;13.67;12.37;;;18.80;99.90;;;;;;6291881;22;20424;-83
2021/08/13 06:13:06;;;;;;;14.73;11.90;;;18.90;99.90;;;;;;6292307;22;20445;-81
2021/08/13 06:15:32;;;;;;;13.63;11.37;;;18.90;99.90;;;;;;6291893;22;20435;-82
2021/08/13 06:17:59;;;;;;;13.53;11.37;;;19.00;99.90;;;;;;6289714;22;20409;-81
2021/08/13 06:20:27;;;;;;;13.90;11.87;;;19.10;99.90;;;;;;6289166;22;20454;-80
2021/08/13 06:22:53;;;;;;;12.77;11.47;;;19.20;99.90;;;;;;6286514;22;20421;-82
2021/08/13 06:25:20;;;;;;;15.00;11.17;;;19.30;99.90;;;;;;6286268;22;20903;-83
2021/08/13 06:27:47;;;;;;;16.00;12.13;;;19.30;99.90;;;;;;6289465;22;20405;-83
2021/08/13 06:30:18;;;;;;;10.40;9.40;;;19.50;99.90;;;;;;6283443;22;20428;-84
2021/08/13 06:32:44;;;;;;;11.83;10.60;;;19.30;99.90;;;;;;6301043;22;20445;-82
2021/08/13 06:35:12;;;;;;;10.43;9.43;;;19.60;99.90;;;;;;6299894;22;20405;-83
2021/08/13 06:37:45;;;;;;;12.97;11.20;;;19.70;99.90;;;;;;6300669;22;20413;-83
2021/08/13 06:40:13;;;;;;;11.30;9.77;;;19.80;99.90;;;;;;6301311;22;20378;-84
2021/08/13 06:42:39;;;;;;;10.30;9.27;;;19.90;99.90;;;;;;6302000;22;20437;-83
2021/08/13 06:45:07;;;;;;;15.17;11.20;;;20.00;99.90;;;;;;6302555;22;20401;-81
2021/08/13 06:47:33;;;;;;;10.90;9.90;;;20.10;99.90;;;;;;6302553;22;20401;-84
2021/08/13 06:50:00;;;;;;;13.20;10.73;;;20.20;99.90;;;;;;6303276;22;20400;-82
2021/08/13 06:52:27;;;;;;;10.83;9.73;;;20.20;99.90;;;;;;6302073;22;20437;-82
2021/08/13 06:54:55;;;;;;;10.67;9.67;;;20.30;99.90;;;;;;6302816;22;20401;-82
2021/08/13 06:57:21;;;;;;;11.13;10.03;;;20.40;99.90;;;;;;6302714;22;20484;-83
2021/08/13 06:59:48;;;;;;;10.73;9.80;;;20.90;99.90;;;;;;6299515;22;20401;-83
2021/08/13 07:02:15;;;;;;;9.83;8.93;;;20.60;99.90;;;;;;6303782;22;20416;-82
2021/08/13 07:04:42;;;;;;;11.00;10.03;;;20.70;99.90;;;;;;6304245;22;20407;-84
2021/08/13 07:07:08;;;;;;;10.33;9.40;;;20.70;99.90;;;;;;6301384;22;20396;-83
2021/08/13 07:09:35;;;;;;;11.97;10.83;;;20.80;99.90;;;;;;6302868;22;20397;-82
2021/08/13 07:12:03;;;;;;;12.37;10.13;;;21.10;99.90;;;;;;6302494;22;20459;-83
2021/08/13 07:14:30;;;;;;;14.67;10.03;;;20.80;99.90;;;;;;6295827;22;20401;-80
2021/08/13 07:16:56;;;;;;;13.40;10.53;;;21.00;99.90;;;;;;6295167;22;20431;-84
2021/08/13 07:19:23;;;;;;;11.90;10.80;;;21.10;99.90;;;;;;6290915;22;20409;-84
2021/08/13 07:21:49;;;;;;;12.17;10.63;;;21.10;99.90;;;;;;6286029;22;20409;-84
2021/08/13 07:24:21;;;;;;;9.67;8.80;;;21.20;99.90;;;;;;6287206;22;20409;-85
2021/08/13 07:26:48;;;;;;;12.10;9.33;;;21.30;99.90;;;;;;6294034;22;20448;-83
2021/08/13 07:29:16;;;;;;;11.37;10.27;;;21.30;99.90;;;;;;6283439;22;20417;-83
2021/08/13 07:31:44;;;;;;;12.57;11.40;;;;;;;;;;6284357;22;20726;-83
2021/08/13 07:34:10;;;;;;;11.73;10.63;;;21.40;99.90;;;;;;6284907;22;20470;-85
2021/08/13 07:36:37;;;;;;;12.53;11.23;;;21.40;99.90;;;;;;6284786;22;20487;-85
2021/08/13 07:39:03;;;;;;;11.50;10.40;;;21.50;99.90;;;;;;6285429;22;20401;-85
2021/08/13 07:41:30;;;;;;;12.33;11.10;;;21.60;99.90;;;;;;6284570;22;20405;-84
2021/08/13 07:43:57;;;;;;;10.77;9.73;;;21.60;99.90;;;;;;6283644;22;20420;-84
2021/08/13 07:46:25;;;;;;;11.67;9.23;;;21.70;99.90;;;;;;6283257;22;20405;-85
2021/08/13 07:48:51;;;;;;;12.83;10.83;;;21.90;99.90;;;;;;6285363;22;20407;-85
2021/08/13 07:51:18;;;;;;;10.68;9.40;;;;;;;;;;6285781;22;20426;-86
2021/08/13 07:53:45;;;;;;;11.60;9.33;;;22.00;99.90;;;;;;6288216;22;20221;-85
2021/08/13 07:56:11;;;;;;;9.97;8.97;;;22.10;99.90;;;;;;6288655;22;20440;-85
2021/08/13 07:58:38;;;;;;;10.00;9.10;;;22.20;99.90;;;;;;6288614;22;20400;-85
2021/08/13 08:01:06;;;;;;;11.33;10.23;;;22.20;99.90;;;;;;6289319;22;20432;-85
2021/08/13 08:03:34;;;;;;;12.03;9.17;;;22.30;99.90;;;;;;6286431;22;20416;-85
2021/08/13 08:06:00;;;;;;;13.30;11.97;;;22.40;99.90;;;;;;6284839;22;20405;-82
2021/08/13 08:08:28;;;;;;;13.27;9.43;;;22.40;99.90;;;;;;6285188;22;20607;-85
2021/08/13 08:10:55;;;;;;;10.33;9.27;;;22.50;99.90;;;;;;6284773;22;20929;-85
2021/08/13 08:13:22;;;;;;;12.70;10.03;;;22.50;99.90;;;;;;6284066;22;20440;-84
2021/08/13 08:15:50;;;;;;;10.73;9.47;;;22.60;99.90;;;;;;6283250;22;20404;-83
2021/08/13 08:18:19;;;;;;;10.90;9.90;;;22.70;99.90;;;;;;6285355;22;20695;-84
2021/08/13 08:20:48;;;;;;;12.37;10.23;;;22.80;99.90;;;;;;6289994;22;20486;-83
2021/08/13 08:23:15;;;;;;;9.97;9.07;;;22.80;99.90;;;;;;6300673;22;20762;-82
2021/08/13 08:25:42;;;;;;;10.17;9.10;;;22.90;99.90;;;;;;6302793;22;20421;-82
2021/08/13 08:28:09;;;;;;;9.50;8.67;;;23.10;99.90;;;;;;6303305;22;20407;-83
2021/08/13 08:30:37;;;;;;;11.00;9.80;;;23.20;99.90;;;;;;6290119;22;20440;-82
2021/08/13 08:33:04;;;;;;;23.20;18.47;;;23.30;99.90;;;;;;6285265;22;20444;-82
2021/08/13 08:35:31;;;;;;;59.07;41.17;;;23.20;99.90;;;;;;6283806;22;20408;-83
2021/08/13 08:38:02;;;;;;;16.73;13.70;;;23.30;99.90;;;;;;6285141;22;20893;-83
2021/08/13 08:40:32;;;;;;;12.20;10.93;;;23.30;99.90;;;;;;6283298;22;20504;-83
2021/08/13 08:56:08;;;;;;;9.33;8.53;;;23.60;99.90;;;;;;6287126;22;20412;-79
2021/08/13 09:09:45;;;;;;;9.47;8.60;;;24.10;99.90;;;;;;6107477;23;20712;-79
2021/08/13 09:26:06;;;;;;;10.73;9.83;;;25.10;99.90;;;;;;6105184;23;20401;-80
2021/08/13 09:35:24;;;;;;;9.90;8.50;;;24.20;99.90;;;;;;6173536;23;20483;-84
2021/08/13 09:47:50;;;;;;;13.67;12.37;;;25.40;99.90;;;;;;5986143;24;20394;-85
2021/08/13 09:50:38;;;;;;;11.93;9.97;;;24.50;99.90;;;;;;6160882;22;20477;-82
2021/08/13 09:53:13;;;;;;;11.77;9.40;;;25.10;99.90;;;;;;6259142;23;20488;-83
2021/08/13 09:56:13;;;;;;;31.90;28.43;;;25.10;99.90;;;;;;6263489;23;20374;-84
2021/08/13 10:04:59;;;;;;;10.97;9.87;;;25.30;99.90;;;;;;6155560;23;20400;-84
2021/08/13 10:07:56;;;;;;;10.20;8.30;;;25.40;99.90;;;;;;6260764;23;20800;-84
2021/08/13 10:10:34;;;;;;;7.93;7.23;;;25.50;99.90;;;;;;6264957;23;20409;-85
2021/08/13 10:13:51;;;;;;;10.00;9.00;;;25.60;99.90;;;;;;6263821;23;20444;-84
2021/08/13 10:16:28;;;;;;;13.23;9.07;;;26.20;99.90;;;;;;6143360;23;20482;-84
2021/08/13 10:18:56;;;;;;;15.90;8.93;;;;;;;;;;6243480;22;20430;-83
2021/08/13 10:21:29;;;;;;;5.97;5.30;;;26.10;99.90;;;;;;6263703;22;20402;-84
2021/08/13 10:24:04;;;;;;;7.07;6.03;;;26.20;99.90;;;;;;6264302;22;20492;-84
2021/08/13 10:26:32;;;;;;;6.90;6.20;;;;;;;;;;6267816;23;20393;-83
2021/08/13 10:29:01;;;;;;;8.33;6.70;;;;;;;;;;6275963;22;20421;-84
2021/08/13 10:31:28;;;;;;;8.73;5.97;;;;;;;;;;6273652;23;20393;-83
2021/08/13 10:33:58;;;;;;;6.90;5.83;;;;;;;;;;6273075;23;20433;-83
2021/08/13 10:36:29;;;;;;;6.30;5.70;;;26.00;99.90;;;;;;6273688;22;20416;-83
2021/08/13 10:38:57;;;;;;;6.20;5.70;;;;;;;;;;6274052;22;20432;-84
2021/08/13 10:41:32;;;;;;;5.27;4.87;;;26.30;99.90;;;;;;6267939;23;20405;-82
2021/08/13 10:46:43;;;;;;;6.60;6.00;;;27.40;99.90;;;;;;6263895;23;20401;-82
2021/08/13 10:49:28;;;;;;;17.80;15.60;;;26.60;99.90;;;;;;6270795;23;20448;-82
2021/08/13 10:52:06;;;;;;;10.80;9.20;;;26.60;99.90;;;;;;6266570;23;20401;-84
2021/08/13 10:54:44;;;;;;;9.33;6.90;;;26.60;99.90;;;;;;6256766;23;20758;-84
2021/08/13 10:57:15;;;;;;;12.20;10.03;;;26.90;99.90;;;;;;6256371;23;20484;-85
2021/08/13 11:00:02;;;;;;;20.33;12.13;;;26.60;99.90;;;;;;6256054;23;20382;-84
2021/08/13 11:02:34;;;;;;;11.97;7.03;;;25.90;99.90;;;;;;6259763;22;20442;-84
2021/08/13 11:05:08;;;;;;;18.00;14.40;;;26.50;99.90;;;;;;6256015;22;20937;-84
2021/08/13 11:08:15;;;;;;;10.37;9.37;;;26.30;99.90;;;;;;6255851;23;20429;-84
2021/08/13 11:11:09;;;;;;;20.20;15.70;;;26.60;99.90;;;;;;6132555;23;20521;-84
2021/08/13 11:13:43;;;;;;;17.90;13.93;;;25.90;99.90;;;;;;6264411;23;20438;-84
2021/08/13 11:16:42;;;;;;;8.30;6.63;;;26.80;99.90;;;;;;6255472;23;20380;-84
2021/08/13 11:19:19;;;;;;;8.23;7.43;;;;;;;;;;6254213;22;20421;-83
2021/08/13 11:22:00;;;;;;;8.20;5.83;;;26.90;99.90;;;;;;6255668;22;20523;-83
2021/08/13 11:24:56;;;;;;;7.23;6.47;;;27.00;99.90;;;;;;6254870;23;20488;-83
2021/08/13 11:27:26;;;;;;;6.70;6.13;;;;;;;;;;6254415;22;20416;-83
2021/08/13 11:30:27;;;;;;;7.50;6.80;;;28.90;99.90;;;;;;6253485;23;20421;-83
2021/08/13 11:33:39;;;;;;;12.20;7.83;;;26.90;99.90;;;;;;6254190;23;20741;-83
2021/08/13 11:36:09;;;;;;;7.77;6.97;;;;;;;;;;6258242;23;20406;-83
2021/08/13 11:39:09;;;;;;;6.73;6.13;;;26.80;99.90;;;;;;6259252;22;20453;-82
2021/08/13 11:42:03;;;;;;;11.20;10.10;;;26.90;99.90;;;;;;6258918;22;20375;-82
2021/08/13 11:44:36;;;;;;;8.90;6.63;;;27.30;99.90;;;;;;6257793;23;20390;-83
2021/08/13 11:47:16;;;;;;;7.30;6.60;;;27.20;99.90;;;;;;6259857;23;20426;-83
2021/08/13 11:49:49;;;;;;;7.83;6.97;;;27.50;99.90;;;;;;6257290;23;20429;-84
2021/08/13 11:52:19;;;;;;;7.50;6.80;;;27.60;99.90;;;;;;6269602;22;20394;-83
2021/08/13 11:55:00;;;;;;;9.67;6.97;;;26.90;99.90;;;;;;6271493;23;20576;-85
2021/08/13 11:57:39;;;;;;;10.00;8.10;;;27.50;99.90;;;;;;6273067;22;20773;-83
2021/08/13 12:03:12;;;;;;;7.00;5.90;;;;;;;;;;6274924;22;20374;-81
2021/08/13 12:05:59;;;;;;;9.03;8.13;;;27.50;99.90;;;;;;6266918;23;20375;-82
2021/08/13 12:08:36;;;;;;;;;;;;;;;;;;;;;
2021/08/13 12:11:07;;;;;;;14.40;11.50;;;27.60;99.90;;;;;;6260223;23;20698;-83
2021/08/13 12:13:44;;;;;;;11.20;9.63;;;27.70;99.90;;;;;;6270936;23;20486;-84
2021/08/13 12:16:11;;;;;;;8.03;7.23;;;;;;;;;;6260862;22;20393;-84
2021/08/13 12:18:50;;;;;;;9.60;7.70;;;;;;;;;;6258453;23;20422;-82
2021/08/13 12:21:59;;;;;;;9.10;7.30;;;27.10;99.90;;;;;;6262015;23;20450;-83
2021/08/13 12:24:45;;;;;;;19.93;17.83;;;27.50;99.90;;;;;;6251679;23;20420;-83
2021/08/13 12:27:18;;;;;;;14.27;12.90;;;27.30;99.90;;;;;;6252296;22;20437;-84
2021/08/13 12:30:05;;;;;;;13.20;9.63;;;28.80;99.90;;;;;;6252204;22;20425;-84
2021/08/13 12:32:44;;;;;;;16.70;12.97;;;29.80;99.90;;;;;;6254421;23;20394;-84
2021/08/13 12:35:15;;;;;;;22.37;19.40;;;27.60;99.90;;;;;;6253412;23;20438;-84
2021/08/13 12:37:47;;;;;;;17.53;14.80;;;27.50;99.90;;;;;;6255939;23;20464;-84
2021/08/13 12:43:44;;;;;;;7.50;6.77;;;28.30;99.90;;;;;;6253664;22;20409;-84
2021/08/13 12:46:54;;;;;;;8.97;7.67;;;27.80;99.90;;;;;;6255937;23;20406;-86
2021/08/13 12:49:45;;;;;;;10.70;8.03;;;28.10;99.90;;;;;;6200440;22;20426;-83
2021/08/13 12:52:27;;;;;;;9.07;7.40;;;28.10;99.90;;;;;;6206421;23;20786;-85
2021/08/13 12:55:14;;;;;;;7.87;7.07;;;28.20;99.90;;;;;;6253397;22;20484;-83
2021/08/13 13:01:30;;;;;;;8.73;7.70;;;28.20;99.90;;;;;;6207974;22;20386;-85
2021/08/13 13:16:41;;;;;;;9.53;8.53;;;28.00;99.90;;;;;;6179219;23;20440;-83
2021/08/13 13:20:16;;;;;;;;;;;;;;;;;;;;;
2021/08/13 13:29:57;;;;;;;11.83;7.80;;;;;;;;;;6200193;23;20534;-85
2021/08/13 13:33:04;;;;;;;10.60;8.23;;;28.00;99.90;;;;;;6193790;23;20400;-86
2021/08/13 13:35:34;;;;;;;8.97;7.93;;;27.90;99.90;;;;;;6237877;22;20464;-86
2021/08/13 13:38:25;;;;;;;8.20;7.50;;;27.90;99.90;;;;;;6256744;22;20414;-86
2021/08/13 13:44:09;;;;;;;12.60;9.50;;;28.10;99.90;;;;;;6268944;22;20409;-86
2021/08/13 13:46:36;;;;;;;10.07;9.17;;;;;;;;;;6256595;23;20405;-85
2021/08/13 13:49:04;;;;;;;10.00;9.10;;;27.90;99.90;;;;;;6254245;23;20480;-85
2021/08/13 13:51:34;;;;;;;9.40;7.63;;;27.90;99.90;;;;;;6256841;23;20402;-85
2021/08/13 13:54:01;;;;;;;8.97;8.13;;;28.00;99.90;;;;;;6255368;23;20445;-84
2021/08/13 13:56:27;;;;;;;26.03;18.70;;;28.10;99.90;;;;;;6258477;23;20437;-84
2021/08/13 13:58:54;;;;;;;11.47;10.07;;;26.00;99.90;;;;;;6256978;23;20780;-85
2021/08/13 14:01:21;;;;;;;13.07;11.37;;;28.00;99.90;;;;;;6257479;23;20433;-85
2021/08/13 14:03:48;;;;;;;14.53;12.97;;;;;;;;;;6268795;22;20413;-85
2021/08/13 14:06:18;;;;;;;8.50;7.70;;;27.80;99.90;;;;;;6255877;23;20887;-84
2021/08/13 14:08:49;;;;;;;10.20;7.57;;;27.90;99.90;;;;;;6257199;23;20414;-84
2021/08/13 14:11:16;;;;;;;12.73;11.07;;;28.00;99.90;;;;;;6260466;23;20399;-86
2021/08/13 14:13:43;;;;;;;10.10;8.90;;;28.30;99.90;;;;;;6257638;23;20430;-85
2021/08/13 14:16:09;;;;;;;10.17;8.53;;;28.40;99.90;;;;;;6257817;23;20429;-84
2021/08/13 14:18:37;;;;;;;9.40;8.30;;;28.20;99.90;;;;;;6258324;22;20422;-86
2021/08/13 14:21:04;;;;;;;9.47;8.57;;;28.20;99.90;;;;;;6257847;23;20405;-86
2021/08/13 14:23:32;;;;;;;10.00;8.57;;;28.20;99.90;;;;;;6256713;23;20398;-85
2021/08/13 14:26:00;;;;;;;15.83;10.10;;;28.60;99.90;;;;;;6262393;23;20424;-84
2021/08/13 14:28:27;;;;;;;12.53;7.93;;;28.10;99.90;;;;;;6262169;23;20932;-85
2021/08/13 14:30:54;;;;;;;10.73;8.43;;;28.10;99.90;;;;;;6258110;22;20406;-86
2021/08/13 14:33:20;;;;;;;8.70;7.97;;;28.10;99.90;;;;;;6258610;23;20514;-86
2021/08/13 14:35:47;;;;;;;8.73;7.90;;;28.00;99.90;;;;;;6265375;22;20517;-84
2021/08/13 14:38:18;;;;;;;9.73;8.73;;;27.90;99.90;;;;;;6255202;23;20414;-85